Flight Track Log - Related Links

Times and Time Zones

All times are in EDT time to prevent confusion due to time zone crossing. See the N38TA flight status page for this flight to view local times or setup timezone preferences in your user account.

Time Position Orientation Groundspeed Altitude Reporting Facility
EDT Latitude Longitude Course Direction KTS MPH feet Rate Location/Type
Thu 09:15:27 AM 34.8806 -85.1883 166° South 160 184 5,700  Level Atlanta Center
Thu 09:16:27 AM 34.8325 -85.1675 160° South 167 192 7,100 1,600 Climbing Atlanta Center
Thu 09:17:27 AM 34.7847 -85.1414 156° South 181 208 8,900 1,700 Climbing Atlanta Center
Thu 09:18:00 AM 34.6098 -85.0879 166° South  Level FlightAware Approximate
Thu 09:18:27 AM 34.7369 -85.1231 162° South 187 215 10,500  Level Atlanta Center
Thu 09:19:00 AM 34.5395 -85.0668 166° South  Level FlightAware Approximate
Thu 09:19:27 AM 34.6911 -85.1075 164° South 187 215 11,900  Level Atlanta Center
Thu 09:20:27 AM 34.6456 -85.0967 169° South 187 215 13,000 1,200 Climbing Atlanta Center
Thu 09:21:27 AM 34.5975 -85.0861 170° South 181 208 14,300 1,150 Climbing Atlanta Center
Thu 09:22:27 AM 34.5497 -85.0778 172° South 181 208 15,300 1,050 Climbing Atlanta Center
Thu 09:23:27 AM 34.4975 -85.0772 179° South 181 208 16,400 1,100 Climbing Atlanta Center
Thu 09:24:27 AM 34.4472 -85.0792 182° South 181 208 17,500 900 Climbing Atlanta Center
Thu 09:25:27 AM 34.3992 -85.0836 184° South 181 208 18,200 650 Climbing Atlanta Center
Thu 09:26:27 AM 34.3492 -85.0931 189° South 181 208 18,800 600 Climbing Atlanta Center
Thu 09:27:27 AM 34.2928 -85.1050 190° South 187 215 19,400 550 Climbing Atlanta Center
Thu 09:28:27 AM 34.2342 -85.1142 187° South 205 236 19,900 550 Climbing Atlanta Center
Thu 09:29:27 AM 34.1717 -85.1133 179° South 217 250 20,500 500 Climbing Atlanta Center
Thu 09:30:27 AM 34.1092 -85.0975 168° South 223 257 20,900 200 Climbing Atlanta Center
Thu 09:31:27 AM 34.0425 -85.0817 169° South 236 272 20,900  Level Atlanta Center
Thu 09:32:27 AM 33.9736 -85.0633 168° South 247 284 20,900  Level Atlanta Center
Thu 09:33:27 AM 33.9008 -85.0425 167° South 261 300 20,900 100 Level Atlanta Center
Thu 09:34:27 AM 33.8278 -85.0242 168° South 266 306 21,100 450 Climbing Atlanta Center
Thu 09:35:27 AM 33.7614 -85.0033 165° South 261 300 21,800 700 Climbing Atlanta Center
Thu 09:36:27 AM 33.6989 -84.9853 166° South 248 285 22,500 550 Climbing Atlanta Center
Thu 09:37:27 AM 33.6383 -84.9669 166° South 235 270 22,900 250 Climbing Atlanta Center
Thu 09:38:27 AM 33.5800 -84.9439 162° South 223 257 23,000 50 Climbing Atlanta Center
Thu 09:39:27 AM 33.5156 -84.9208 163° South 228 262 23,000  Level Atlanta Center
Thu 09:40:27 AM 33.4469 -84.8953 163° South 240 276 23,000  Level Atlanta Center
Thu 09:41:27 AM 33.3719 -84.8722 166° South 252 290 23,000  Level Atlanta Center
Thu 09:42:27 AM 33.3117 -84.8417 157° South 257 296 23,000  Level Atlanta Center
Thu 09:43:27 AM 33.2408 -84.8114 160° South 262 302 23,000  Level Atlanta Center
Thu 09:44:27 AM 33.1742 -84.7808 159° South 262 302 23,000  Level Atlanta Center
Thu 09:45:27 AM 33.1033 -84.7531 162° South 267 307 23,000  Level Atlanta Center
Thu 09:46:27 AM 33.0347 -84.7203 158° South 267 307 23,000  Level Atlanta Center
Thu 09:47:27 AM 32.9681 -84.6900 159° South 267 307 23,000  Level Atlanta Center
Thu 09:48:27 AM 32.8911 -84.6547 159° South 267 307 23,000  Level Atlanta Center
Thu 09:49:27 AM 32.8222 -84.6247 160° South 267 307 23,000  Level Atlanta Center
Thu 09:50:27 AM 32.7556 -84.5969 161° South 272 313 23,000  Level Atlanta Center
Thu 09:51:27 AM 32.6889 -84.5597 155° Southeast 272 313 23,000  Level Atlanta Center
Thu 09:52:27 AM 32.6181 -84.5297 160° South 272 313 23,000  Level Atlanta Center
Thu 09:53:27 AM 32.5514 -84.4972 158° South 267 307 23,000  Level Atlanta Center
Thu 09:54:27 AM 32.4786 -84.4672 161° South 267 307 23,000  Level Atlanta Center
Thu 09:55:27 AM 32.4097 -84.4350 158° South 267 307 23,000  Level Atlanta Center
Thu 09:56:27 AM 32.3408 -84.4075 161° South 267 307 23,000  Level Atlanta Center
Thu 09:58:45 AM 32.1686 -84.3381 161° South 269 310 23,000  Level Jacksonville Center
Thu 09:59:45 AM 32.0958 -84.3175 167° South 264 304 23,000  Level Jacksonville Center
Thu 10:00:45 AM 32.0250 -84.2992 168° South 264 304 23,000  Level Jacksonville Center
Thu 10:01:45 AM 31.9522 -84.2883 173° South 264 304 23,000  Level Jacksonville Center
Thu 10:02:45 AM 31.8772 -84.2797 174° South 259 298 23,000  Level Jacksonville Center
Thu 10:03:45 AM 31.8061 -84.2689 173° South 259 298 23,000  Level Jacksonville Center
Thu 10:04:45 AM 31.7394 -84.2606 174° South 264 304 23,000  Level Jacksonville Center
Thu 10:05:45 AM 31.6603 -84.2447 170° South 264 304 23,000  Level Jacksonville Center
Thu 10:06:45 AM 31.5936 -84.2317 171° South 264 304 23,000  Level Jacksonville Center
Thu 10:07:45 AM 31.5228 -84.2158 169° South 264 304 23,000  Level Jacksonville Center
Thu 10:08:45 AM 31.4500 -84.2028 171° South 264 304 23,000  Level Jacksonville Center
Thu 10:09:45 AM 31.3792 -84.1847 168° South 264 304 23,000  Level Jacksonville Center
Thu 10:10:45 AM 31.3061 -84.1717 171° South 264 304 23,000  Level Jacksonville Center
Thu 10:11:45 AM 31.2333 -84.1583 171° South 264 304 23,000  Level Jacksonville Center
Thu 10:12:45 AM 31.1603 -84.1381 167° South 264 304 23,000  Level Jacksonville Center
Thu 10:13:45 AM 31.0917 -84.1056 158° South 264 304 23,000  Level Jacksonville Center
Thu 10:14:45 AM 31.0231 -84.0708 157° South 264 304 23,000  Level Jacksonville Center
Thu 10:15:45 AM 30.9544 -84.0361 157° South 270 311 23,000  Level Jacksonville Center
Thu 10:16:45 AM 30.8819 -83.9989 156° South 275 316 23,000  Level Jacksonville Center
Thu 10:17:45 AM 30.8133 -83.9642 157° South 275 316 23,000  Level Jacksonville Center
Thu 10:18:45 AM 30.7447 -83.9247 154° Southeast 275 316 23,000  Level Jacksonville Center
Thu 10:19:45 AM 30.6761 -83.8878 155° Southeast 275 316 23,000  Level Jacksonville Center
Thu 10:20:45 AM 30.6075 -83.8508 155° Southeast 275 316 23,000 50 Level Jacksonville Center
Thu 10:21:45 AM 30.5367 -83.8019 149° Southeast 275 316 23,100  Climbing Jacksonville Center
Thu 10:22:45 AM 30.4703 -83.7531 148° Southeast 280 322 23,000 -50 Descending Jacksonville Center
Thu 10:23:45 AM 30.4100 -83.6972 141° Southeast 280 322 23,000  Level Jacksonville Center
Thu 10:24:45 AM 30.3478 -83.6436 143° Southeast 280 322 23,000 50 Level Jacksonville Center
Thu 10:25:45 AM 30.2856 -83.5878 142° Southeast 280 322 23,100 50 Climbing Jacksonville Center
Thu 10:26:45 AM 30.2231 -83.5344 144° Southeast 286 329 23,100  Level Jacksonville Center
Thu 10:28:45 AM 30.0964 -83.4281 167° South 286 329 23,100  Level Jacksonville Center
Thu 10:29:45 AM 30.0233 -83.3917 157° South 281 323 23,100  Level Jacksonville Center
Thu 10:30:45 AM 29.9503 -83.3625 161° South 281 323 23,100  Level Jacksonville Center
Thu 10:31:45 AM 29.8753 -83.3356 163° South 281 323 23,100  Level Jacksonville Center
Thu 10:32:45 AM 29.8003 -83.3186 169° South 281 323 23,100  Level Jacksonville Center
Thu 10:33:45 AM 29.7231 -83.2967 166° South 281 323 23,100  Level Jacksonville Center
Thu 10:34:45 AM 29.6481 -83.2703 163° South 281 323 23,100  Level Jacksonville Center
Thu 10:35:45 AM 29.5811 -83.2461 163° South 275 316 23,100  Level Jacksonville Center
Thu 10:36:46 AM 29.5083 -83.2219 164° South 281 323 23,100  Level Jacksonville Center
Thu 10:37:45 AM 29.4228 -83.1883 161° South 287 330 23,100  Level Jacksonville Center
Thu 10:38:45 AM 29.3456 -83.1642 165° South 287 330 23,100  Level Jacksonville Center
Thu 10:39:45 AM 29.2725 -83.1403 164° South 287 330 23,100  Level Jacksonville Center
Thu 10:41:45 AM 29.1222 -83.0897 167° South 287 330 23,100  Level Jacksonville Center
Thu 10:42:45 AM 29.0472 -83.0636 163° South 282 325 23,100  Level Jacksonville Center
Thu 10:43:45 AM 28.9722 -83.0372 163° South 282 325 23,100  Level Jacksonville Center
Thu 10:44:45 AM 28.8950 -83.0136 165° South 282 325 23,100  Level Jacksonville Center
Thu 10:45:45 AM 28.8197 -82.9872 163° South 282 325 23,100  Level Jacksonville Center
Thu 10:46:45 AM 28.7447 -82.9636 165° South 282 325 23,100  Level Jacksonville Center
Thu 10:47:45 AM 28.6675 -82.9375 163° South 282 325 23,100  Level Jacksonville Center
Thu 10:48:45 AM 28.5944 -82.9139 164° South 282 325 23,100  Level Jacksonville Center
Thu 10:49:45 AM 28.5192 -82.8878 163° South 282 325 23,100  Level Jacksonville Center
Thu 10:50:45 AM 28.4419 -82.8594 162° South 282 325 23,100  Level Jacksonville Center
Thu 10:51:45 AM 28.3689 -82.8358 164° South 282 325 23,100  Level Jacksonville Center
Thu 10:53:59 AM 28.2125 -82.7811 163° South 280 322 23,100  Level Miami Center
Thu 10:55:01 AM 28.1389 -82.7572 164° South 277 319 23,100  Level Miami Center
Thu 10:56:03 AM 28.0647 -82.7336 164° South 276 318 23,100  Level Miami Center
Thu 10:57:05 AM 27.9792 -82.7053 164° South 278 320 23,100  Level Miami Center
Thu 10:58:07 AM 27.8994 -82.6800 164° South 278 320 23,100 -48 Level Miami Center
Thu 10:59:10 AM 27.8294 -82.6606 166° South 278 320 23,000  Descending Miami Center
Thu 11:00:12 AM 27.7417 -82.6369 167° South 278 320 23,100 48 Climbing Miami Center
Thu 11:01:14 AM 27.6611 -82.6186 169° South 280 322 23,100 -48 Level Miami Center
Thu 11:02:16 AM 27.5825 -82.5975 167° South 278 320 23,000 -484 Descending Miami Center
Thu 11:03:18 AM 27.5056 -82.5789 168° South 290 334 22,100 -1,065 Descending Miami Center
Thu 11:04:20 AM 27.4158 -82.5575 168° South 310 357 20,800 -1,403 Descending Miami Center
Thu 11:05:22 AM 27.3206 -82.5367 169° South 325 374 19,200 -1,296 Descending Miami Center
Thu 11:06:25 AM 27.2406 -82.5183 168° South 333 383 18,100 -1,248 Descending Miami Center
Thu 11:07:27 AM 27.1314 -82.4906 167° South 333 383 16,600 -1,452 Descending Miami Center
Thu 11:08:29 AM 27.0408 -82.4703 169° South 333 383 15,100 -1,254 Descending Miami Center
Thu 11:12:38 AM 26.6681 -82.3806 135° Southeast 304 350 10,100 -1,019 Descending Miami Center
Thu 11:13:41 AM 26.5925 -82.3625 168° South 285 328 9,800 -480 Descending Miami Center
Thu 11:14:43 AM 26.5178 -82.3161 151° Southeast 288 331 9,100 -581 Descending Miami Center
Thu 11:15:45 AM 26.4544 -82.2650 144° Southeast 286 329 8,600 -823 Descending Miami Center
Thu 11:16:47 AM 26.3872 -82.2117 145° Southeast 279 321 7,400 -1,008 Descending Miami Center
Thu 11:17:00 AM 26.5046 -82.2143 135° Southeast  Level FlightAware Approximate
Thu 11:17:50 AM 26.3300 -82.1511 137° Southeast 258 297 6,500  Level Miami Center
Thu 11:18:00 AM 26.4541 -82.1582 135° Southeast  Level FlightAware Approximate
Thu 11:18:52 AM 26.3003 -82.0867 117° Southeast 241 277 5,700  Level Miami Center
Thu 11:19:54 AM 26.2675 -82.0175 118° Southeast 240 276 4,500 -1,056 Descending Miami Center
Thu 11:20:57 AM 26.2383 -81.9544 117° Southeast 236 272 3,500 -864 Descending Miami Center
Thu 11:21:59 AM 26.2094 -81.9000 121° Southeast 193 222 2,700 -677 Descending Miami Center
Thu 11:23:01 AM 26.1644 -81.8711 150° Southeast 172 198 2,100 -629 Descending Miami Center
Thu 11:24:03 AM 26.1300 -81.8381 139° Southeast 170 196 1,400 -720 Descending Miami Center
Thu 11:25:06 AM 26.1311 -81.8011 88° East 140 161 600 -762 Descending Miami Center
Thu 11:27:00 AM 26.1500 -81.7667 130° Southeast  Level FlightAware Approximate
Thu 11:34:00 AM 26.1524 -81.7756 130° Southeast  Level Estimated

Login

Don't have an account? Register now (free) for customized features, flight alerts, and more!